Time;durP1;ratioP1;P1;durP2;ratioP2;P2;SDS_P1;SDS_P2;PMS_P1;PMS_P2;Temp;Humidity;BMP_temperature;BMP_pressure;BME280_temperature;BME280_humidity;BME280_pressure;Samples;Min_cycle;Max_cycle;Signal;HPM_P1;HPM_P2
2022/06/06 00:00:45;;;;;;;50.05;22.27;;;;;;;;;;5015730;28;19921;-72
2022/06/06 00:03:12;;;;;;;48.70;23.50;;;;;;;;;;5016266;28;20046;-71
2022/06/06 00:05:38;;;;;;;;;;;;;;;;;;5015842;28;20492;-70
2022/06/06 00:08:04;;;;;;;30.33;18.05;;;;;;;;;;5015482;28;19921;-70
2022/06/06 00:10:30;;;;;;;34.40;19.17;;;;;;;;;;5015611;28;20057;-70
2022/06/06 00:12:56;;;;;;;27.33;17.33;;;;;;;;;;5015496;28;20049;-70
2022/06/06 00:15:22;;;;;;;37.28;20.15;;;;;;;;;;5014974;28;20132;-71
2022/06/06 00:17:49;;;;;;;36.72;18.60;;;;;;;;;;5015581;28;20045;-67
2022/06/06 00:20:16;;;;;;;;;;;;;;;;;;5015667;28;20046;-70
2022/06/06 00:22:42;;;;;;;41.30;20.70;;;;;;;;;;5015566;28;19922;-71
2022/06/06 00:25:09;;;;;;;47.42;22.15;;;;;;;;;;5015337;28;20505;-67
2022/06/06 00:27:37;;;;;;;43.70;21.63;;;;;;;;;;5015480;28;20041;-70
2022/06/06 00:30:03;;;;;;;36.50;19.23;;;;;;;;;;4998147;28;20054;-66
2022/06/06 00:35:14;;;;;;;31.20;18.65;;;;;;;;;;5014714;28;20320;-71
2022/06/06 00:37:42;;;;;;;39.53;21.92;;;;;;;;;;5014757;28;20484;-70
2022/06/06 00:40:09;;;;;;;53.67;24.65;;;;;;;;;;5015538;28;20046;-69
2022/06/06 00:42:38;;;;;;;45.17;22.40;;;;;;;;;;5014862;28;20050;-70
2022/06/06 00:45:30;;;;;;;56.05;24.17;;;;;;;;;;5014972;28;20095;-69
2022/06/06 00:47:59;;;;;;;37.70;20.90;;;;;;;;;;5014022;28;20054;-68
2022/06/06 00:50:31;;;;;;;54.25;26.73;;;;;;;;;;5014675;28;20081;-69
2022/06/06 00:52:59;;;;;;;41.20;23.88;;;;;;;;;;5013670;28;20050;-68
2022/06/06 00:55:28;;;;;;;44.95;22.35;;;;;;;;;;5014820;28;20133;-68
2022/06/06 00:58:14;;;;;;;40.90;23.50;;;;;;;;;;5014629;28;20045;-65
2022/06/06 01:00:43;;;;;;;40.70;22.15;;;;;;;;;;5015306;28;20045;-69
2022/06/06 01:03:09;;;;;;;;;;;;;;;;;;5015005;28;20042;-69
2022/06/06 01:05:36;;;;;;;41.88;23.20;;;;;;;;;;5014313;28;20411;-67
2022/06/06 01:08:03;;;;;;;53.50;27.10;;;;;;;;;;5013605;28;20046;-68
2022/06/06 01:10:29;;;;;;;46.05;25.15;;;;;;;;;;5013368;28;20081;-65
2022/06/06 01:12:56;;;;;;;48.42;22.05;;;;;;;;;;5014415;28;20045;-65
2022/06/06 01:15:23;;;;;;;56.83;28.58;;;;;;;;;;5014381;28;20124;-68
2022/06/06 01:18:05;;;;;;;46.33;25.60;;;;;;;;;;5014399;28;20068;-68
2022/06/06 01:20:51;;;;;;;58.05;27.60;;;;;;;;;;5014308;28;20045;-67
2022/06/06 01:23:41;;;;;;;61.53;28.08;;;;;;;;;;5014156;28;20057;-68
2022/06/06 01:26:07;;;;;;;58.10;27.50;;;;;;;;;;5014973;28;20425;-67
2022/06/06 01:28:52;;;;;;;60.33;26.90;;;;;;;;;;5014104;28;20128;-68
2022/06/06 01:31:38;;;;;;;50.33;25.70;;;;;;;;;;5014507;28;20058;-65
2022/06/06 01:34:06;;;;;;;37.03;19.30;;;;;;;;;;5013614;28;20085;-68
2022/06/06 01:36:32;;;;;;;43.38;21.45;;;;;;;;;;5013843;28;20088;-67
2022/06/06 01:38:59;;;;;;;40.53;21.42;;;;;;;;;;5014024;28;20056;-66
2022/06/06 01:41:26;;;;;;;46.83;25.10;;;;;;;;;;5014031;28;20136;-67
2022/06/06 01:43:52;;;;;;;;;;;;;;;;;;5015060;28;20367;-67
2022/06/06 01:46:23;;;;;;;26.70;13.45;;;;;;;;;;5013667;28;19937;-72
2022/06/06 01:48:50;;;;;;;39.53;19.45;;;;;;;;;;5013704;28;20046;-69
2022/06/06 01:51:18;;;;;;;33.45;16.70;;;;;;;;;;5012715;28;20064;-74
2022/06/06 01:53:45;;;;;;;34.35;19.75;;;;;;;;;;5013655;28;20045;-69
2022/06/06 01:56:11;;;;;;;;;;;;;;;;;;5014000;28;20054;-70
2022/06/06 01:58:37;;;;;;;33.97;19.80;;;;;;;;;;5013778;28;19928;-68
2022/06/06 02:01:03;;;;;;;;;;;;;;;;;;5014607;28;20377;-69
2022/06/06 02:03:30;;;;;;;34.92;17.05;;;;;;;;;;5013646;28;19925;-73
2022/06/06 02:05:56;;;;;;;35.72;20.00;;;;;;;;;;5013742;28;20049;-69
2022/06/06 02:08:22;;;;;;;;;;;;;;;;;;5014368;28;20052;-80
2022/06/06 02:10:48;;;;;;;35.75;19.35;;;;;;;;;;5013612;28;19921;-73
2022/06/06 02:13:15;;;;;;;34.20;17.67;;;;;;;;;;5013600;28;20050;-70
2022/06/06 02:15:41;;;;;;;33.08;16.95;;;;;;;;;;5013490;28;20049;-71
2022/06/06 02:18:07;;;;;;;;;;;;;;;;;;5013814;28;20410;-72
2022/06/06 02:20:34;;;;;;;36.60;17.10;;;;;;;;;;5013674;28;20357;-66
2022/06/06 02:23:01;;;;;;;33.63;13.48;;;;;;;;;;5013392;28;20513;-75
2022/06/06 02:25:28;;;;;;;25.83;13.32;;;;;;;;;;5013537;28;20136;-76
2022/06/06 02:27:55;;;;;;;25.05;12.32;;;;;;;;;;5013336;28;20086;-72
2022/06/06 02:30:23;;;;;;;30.65;14.95;;;;;;;;;;5013528;28;20056;-71
2022/06/06 02:32:49;;;;;;;24.75;11.85;;;;;;;;;;5014105;28;20050;-73
2022/06/06 02:35:17;;;;;;;22.48;11.30;;;;;;;;;;5013987;28;20076;-71
2022/06/06 02:37:44;;;;;;;20.98;11.70;;;;;;;;;;5013431;28;20125;-73
2022/06/06 02:40:11;;;;;;;23.98;12.15;;;;;;;;;;5017577;28;20076;-73
2022/06/06 02:42:38;;;;;;;24.58;11.90;;;;;;;;;;5016975;28;20482;-70
2022/06/06 02:45:04;;;;;;;21.95;9.82;;;;;;;;;;5017309;28;20048;-69
2022/06/06 02:47:30;;;;;;;22.77;10.70;;;;;;;;;;5015295;28;20505;-70
2022/06/06 02:49:57;;;;;;;25.40;12.20;;;;;;;;;;5017197;28;20112;-67
2022/06/06 02:52:23;;;;;;;25.55;11.75;;;;;;;;;;5016772;28;20053;-75
2022/06/06 02:54:49;;;;;;;;;;;;;;;;;;5017431;28;20042;-68
2022/06/06 02:57:16;;;;;;;20.63;11.35;;;;;;;;;;5016887;28;20249;-67
2022/06/06 02:59:46;;;;;;;22.10;10.18;;;;;;;;;;5016838;28;20050;-81
2022/06/06 03:02:12;;;;;;;25.88;13.27;;;;;;;;;;5016767;28;20046;-70
2022/06/06 03:04:39;;;;;;;22.88;12.57;;;;;;;;;;5016907;28;20057;-71
2022/06/06 03:07:09;;;;;;;25.27;13.85;;;;;;;;;;5016706;28;20081;-71
2022/06/06 03:09:53;;;;;;;23.55;14.07;;;;;;;;;;5016661;28;20053;-71
2022/06/06 03:12:38;;;;;;;24.90;14.02;;;;;;;;;;5016636;28;20052;-72
2022/06/06 03:15:22;;;;;;;23.80;13.30;;;;;;;;;;5016696;28;20096;-72
2022/06/06 03:20:57;;;;;;;31.98;15.80;;;;;;;;;;5016727;28;20104;-70
2022/06/06 03:23:46;;;;;;;29.65;16.33;;;;;;;;;;5016620;28;20053;-69
2022/06/06 03:26:36;;;;;;;31.00;15.60;;;;;;;;;;5017011;28;20057;-66
2022/06/06 03:29:21;;;;;;;26.90;14.57;;;;;;;;;;5016889;28;20045;-70
2022/06/06 03:32:06;;;;;;;25.80;14.55;;;;;;;;;;5016844;28;20371;-72
2022/06/06 03:34:34;;;;;;;20.38;12.35;;;;;;;;;;5016441;28;20081;-70
2022/06/06 03:37:16;;;;;;;28.55;14.45;;;;;;;;;;5015896;28;20132;-71
2022/06/06 03:39:55;;;;;;;23.17;12.73;;;;;;;;;;5015967;28;20050;-72
2022/06/06 03:42:36;;;;;;;23.25;13.35;;;;;;;;;;5016244;28;20129;-71
2022/06/06 03:45:02;;;;;;;28.45;15.82;;;;;;;;;;5015319;28;20045;-71
2022/06/06 03:48:00;;;;;;;28.33;15.93;;;;;;;;;;5015818;28;20046;-73
2022/06/06 03:50:26;;;;;;;28.88;15.38;;;;;;;;;;5001876;28;20071;-72
2022/06/06 03:52:58;;;;;;;32.28;17.00;;;;;;;;;;5014731;28;20053;-69
2022/06/06 03:55:33;;;;;;;23.42;11.73;;;;;;;;;;5014852;28;20052;-74
2022/06/06 03:58:00;;;;;;;25.67;13.68;;;;;;;;;;5014891;28;20037;-70
2022/06/06 04:00:27;;;;;;;23.92;12.27;;;;;;;;;;5014749;28;20489;-71
2022/06/06 04:02:55;;;;;;;28.08;13.32;;;;;;;;;;5015573;28;20134;-70
2022/06/06 04:05:22;;;;;;;25.30;12.57;;;;;;;;;;5015299;28;20054;-70
2022/06/06 04:07:48;;;;;;;24.45;13.52;;;;;;;;;;5015234;28;20041;-70
2022/06/06 04:10:15;;;;;;;25.50;14.23;;;;;;;;;;5014985;28;20088;-68
2022/06/06 04:12:58;;;;;;;23.77;12.32;;;;;;;;;;5014780;28;20046;-69
2022/06/06 04:15:28;;;;;;;22.75;11.88;;;;;;;;;;5014816;28;20046;-70
2022/06/06 04:17:54;;;;;;;23.92;13.77;;;;;;;;;;5014828;28;20125;-69
2022/06/06 04:20:20;;;;;;;22.08;12.27;;;;;;;;;;5015238;28;20124;-69
2022/06/06 04:22:46;;;;;;;;;;;;;;;;;;5014642;28;20061;-69
2022/06/06 04:25:15;;;;;;;22.35;12.05;;;;;;;;;;5014366;28;19921;-70
2022/06/06 04:27:52;;;;;;;26.90;13.18;;;;;;;;;;5014778;28;20531;-70
2022/06/06 04:30:24;;;;;;;21.70;11.10;;;;;;;;;;5014958;28;20493;-68
2022/06/06 04:32:56;;;;;;;22.63;11.75;;;;;;;;;;5015568;28;20053;-68
2022/06/06 04:35:29;;;;;;;17.40;9.45;;;;;;;;;;5013250;28;20046;-68
2022/06/06 04:38:01;;;;;;;18.50;10.68;;;;;;;;;;5014683;28;20115;-68
2022/06/06 04:40:36;;;;;;;18.92;9.73;;;;;;;;;;5015043;28;20045;-69
2022/06/06 04:43:15;;;;;;;16.52;9.95;;;;;;;;;;5014692;28;20049;-69
2022/06/06 04:45:46;;;;;;;17.55;10.10;;;;;;;;;;5014478;28;20323;-67
2022/06/06 04:48:13;;;;;;;19.38;10.98;;;;;;;;;;5014846;28;20089;-68
2022/06/06 04:50:42;;;;;;;16.25;8.82;;;;;;;;;;5014135;28;20052;-68
2022/06/06 04:53:10;;;;;;;19.77;9.77;;;;;;;;;;5013774;28;20133;-68
2022/06/06 04:55:40;;;;;;;16.10;8.80;;;;;;;;;;5013611;28;20050;-67
2022/06/06 04:58:07;;;;;;;15.55;8.60;;;;;;;;;;5014725;28;20133;-68
2022/06/06 05:00:35;;;;;;;16.10;7.32;;;;;;;;;;5013690;28;20049;-68
2022/06/06 05:03:01;;;;;;;11.73;5.72;;;;;;;;;;5013772;28;20054;-68
2022/06/06 05:05:32;;;;;;;11.77;5.22;;;;;;;;;;5014370;28;20133;-69
2022/06/06 05:08:06;;;;;;;11.07;4.63;;;;;;;;;;5012957;28;20041;-72
2022/06/06 05:10:38;;;;;;;11.38;5.50;;;;;;;;;;5012691;28;20060;-69
2022/06/06 05:13:13;;;;;;;14.10;6.90;;;;;;;;;;5013354;28;20046;-68
2022/06/06 05:15:57;;;;;;;12.65;6.45;;;;;;;;;;5013473;28;20046;-69
2022/06/06 05:18:23;;;;;;;12.98;6.05;;;;;;;;;;5012713;28;20054;-68
2022/06/06 05:20:49;;;;;;;14.68;6.60;;;;;;;;;;5012840;28;20049;-68
2022/06/06 05:23:15;;;;;;;16.70;7.72;;;;;;;;;;5013082;28;20049;-71
2022/06/06 05:25:41;;;;;;;16.35;7.80;;;;;;;;;;5013360;28;20378;-68
2022/06/06 05:28:10;;;;;;;12.55;5.72;;;;;;;;;;5013186;28;20060;-67
2022/06/06 05:31:05;;;;;;;16.42;7.97;;;;;;;;;;5012757;28;20060;-69
2022/06/06 05:33:46;;;;;;;18.67;8.07;;;;;;;;;;5008790;28;20123;-71
2022/06/06 05:36:31;;;;;;;16.27;8.25;;;;;;;;;;5012700;28;20050;-69
2022/06/06 05:39:10;;;;;;;17.02;7.95;;;;;;;;;;5012545;28;20143;-74
2022/06/06 05:41:46;;;;;;;16.73;8.13;;;;;;;;;;5013134;28;20046;-69
2022/06/06 05:44:12;;;;;;;17.15;7.97;;;;;;;;;;5012810;28;20053;-69
2022/06/06 05:46:47;;;;;;;23.67;10.13;;;;;;;;;;5012416;28;20406;-71
2022/06/06 05:49:28;;;;;;;18.55;9.43;;;;;;;;;;5012342;28;20397;-69
2022/06/06 05:51:54;;;;;;;27.48;12.00;;;;;;;;;;5012555;28;20140;-69
2022/06/06 05:54:39;;;;;;;26.92;11.88;;;;;;;;;;5012230;28;20049;-74
2022/06/06 05:57:08;;;;;;;25.42;10.85;;;;;;;;;;5012365;28;20057;-73
2022/06/06 05:59:46;;;;;;;33.80;15.85;;;;;;;;;;5011946;28;20165;-72
2022/06/06 06:02:25;;;;;;;25.23;11.98;;;;;;;;;;5012572;28;20172;-66
2022/06/06 06:04:54;;;;;;;23.58;12.15;;;;;;;;;;5011419;28;20135;-67
2022/06/06 06:07:28;;;;;;;23.33;11.23;;;;;;;;;;5011354;28;20049;-66
2022/06/06 06:10:03;;;;;;;23.85;9.13;;;;;;;;;;5011651;28;20514;-68
2022/06/06 06:12:30;;;;;;;20.23;10.20;;;;;;;;;;5010696;28;20058;-70
2022/06/06 06:15:02;;;;;;;20.08;9.32;;;;;;;;;;5010736;28;20054;-69
2022/06/06 06:17:31;;;;;;;17.52;8.20;;;;;;;;;;5010800;28;20058;-70
2022/06/06 06:20:05;;;;;;;22.40;9.68;;;;;;;;;;5012066;28;20058;-66
2022/06/06 06:22:36;;;;;;;24.00;11.30;;;;;;;;;;5010149;28;20054;-67
2022/06/06 06:25:03;;;;;;;17.67;9.15;;;;;;;;;;5010997;28;20092;-69
2022/06/06 06:27:31;;;;;;;21.23;9.00;;;;;;;;;;5011184;28;20129;-67
2022/06/06 06:29:57;;;;;;;23.33;10.57;;;;;;;;;;5011084;28;20499;-71
2022/06/06 06:32:32;;;;;;;24.67;11.65;;;;;;;;;;5011424;28;20145;-68
2022/06/06 06:35:08;;;;;;;25.70;11.25;;;;;;;;;;5010417;28;20120;-68
2022/06/06 06:38:10;;;;;;;20.20;10.30;;;;;;;;;;5011590;28;20441;-68
2022/06/06 06:40:54;;;;;;;21.38;8.63;;;;;;;;;;4973014;28;20049;-68
2022/06/06 06:43:20;;;;;;;17.38;8.73;;;;;;;;;;5006999;28;20054;-67
2022/06/06 06:45:57;;;;;;;16.92;7.95;;;;;;;;;;4992907;28;20405;-68
2022/06/06 06:48:39;;;;;;;17.80;7.03;;;;;;;;;;5011490;28;20057;-65
2022/06/06 06:51:24;;;;;;;15.85;6.80;;;;;;;;;;5011086;28;20045;-68
2022/06/06 06:53:50;;;;;;;13.07;6.53;;;;;;;;;;5010511;28;20530;-65
2022/06/06 06:56:22;;;;;;;13.25;5.47;;;;;;;;;;5009997;28;20045;-68
2022/06/06 06:58:55;;;;;;;13.65;5.45;;;;;;;;;;5010402;28;20137;-67
2022/06/06 07:08:32;;;;;;;12.02;5.78;;;;;;;;;;4993852;28;20060;-67
2022/06/06 07:10:31;;;;;;;13.02;5.35;;;;;;;;;;5010787;28;20050;-64
2022/06/06 07:13:15;;;;;;;13.20;6.10;;;;;;;;;;5007030;28;20502;-64
2022/06/06 07:15:42;;;;;;;14.07;6.05;;;;;;;;;;5010440;28;20140;-65
2022/06/06 07:18:09;;;;;;;12.52;5.43;;;;;;;;;;5008966;28;20132;-66
2022/06/06 07:20:36;;;;;;;26.27;13.82;;;;;;;;;;5009292;28;20049;-65
2022/06/06 07:23:04;;;;;;;13.77;6.13;;;;;;;;;;5010264;28;20371;-66
2022/06/06 07:25:33;;;;;;;12.40;5.10;;;;;;;;;;5013124;28;20147;-64
2022/06/06 07:27:59;;;;;;;13.23;5.40;;;;;;;;;;5014118;28;20111;-76
2022/06/06 07:30:28;;;;;;;13.55;5.53;;;;;;;;;;5013757;28;20054;-65
2022/06/06 07:32:54;;;;;;;14.77;5.53;;;;;;;;;;5012837;28;20485;-68
2022/06/06 07:35:29;;;;;;;13.23;4.97;;;;;;;;;;5014152;28;20157;-67
2022/06/06 07:37:58;;;;;;;12.50;5.15;;;;;;;;;;5014334;28;20430;-66
2022/06/06 07:40:48;;;;;;;11.57;4.18;;;;;;;;;;5013463;28;20046;-67
2022/06/06 07:43:23;;;;;;;13.23;4.85;;;;;;;;;;5010236;28;20068;-65
2022/06/06 07:45:54;;;;;;;15.55;5.00;;;;;;;;;;4996191;28;20556;-64
2022/06/06 07:48:20;;;;;;;11.23;4.30;;;;;;;;;;5013227;28;20084;-63
2022/06/06 07:51:06;;;;;;;10.07;3.80;;;;;;;;;;5012484;28;20056;-65
2022/06/06 07:53:35;;;;;;;11.25;4.43;;;;;;;;;;5013609;28;20058;-66
2022/06/06 07:56:04;;;;;;;14.95;4.65;;;;;;;;;;5013387;28;20058;-65
2022/06/06 07:58:42;;;;;;;11.80;4.70;;;;;;;;;;5013339;28;20058;-64
2022/06/06 08:01:23;;;;;;;12.07;4.38;;;;;;;;;;5013151;28;20080;-64
2022/06/06 08:04:08;;;;;;;11.57;4.50;;;;;;;;;;5011632;28;20050;-65
2022/06/06 08:06:45;;;;;;;12.40;4.40;;;;;;;;;;5013603;28;20440;-65
2022/06/06 08:09:27;;;;;;;11.90;4.20;;;;;;;;;;5012388;28;20417;-68
2022/06/06 08:12:09;;;;;;;12.82;4.65;;;;;;;;;;5013458;28;20169;-64
2022/06/06 08:14:49;;;;;;;13.10;4.60;;;;;;;;;;5013212;28;20133;-65
2022/06/06 08:17:22;;;;;;;16.83;6.70;;;;;;;;;;5013039;28;20052;-66
2022/06/06 08:19:56;;;;;;;12.05;4.45;;;;;;;;;;5012996;28;20481;-64
2022/06/06 08:22:24;;;;;;;12.88;4.72;;;;;;;;;;5013051;28;20053;-66
2022/06/06 08:24:52;;;;;;;19.02;6.07;;;;;;;;;;5012822;28;20050;-67
2022/06/06 08:27:19;;;;;;;13.52;5.80;;;;;;;;;;5012599;28;20097;-72
2022/06/06 08:29:46;;;;;;;14.40;6.40;;;;;;;;;;5013460;28;20430;-69
2022/06/06 08:32:13;;;;;;;16.13;6.35;;;;;;;;;;4995720;28;20143;-68
2022/06/06 08:34:39;;;;;;;12.75;5.43;;;;;;;;;;5012664;28;20042;-67
2022/06/06 08:37:14;;;;;;;15.07;5.75;;;;;;;;;;5012145;28;20132;-68
2022/06/06 08:39:40;;;;;;;14.93;6.03;;;;;;;;;;5012385;28;20080;-67
2022/06/06 08:42:24;;;;;;;15.55;6.45;;;;;;;;;;5013257;28;20438;-69
2022/06/06 08:44:53;;;;;;;17.15;6.95;;;;;;;;;;5013297;28;20351;-67
2022/06/06 08:47:46;;;;;;;17.52;6.82;;;;;;;;;;5013065;28;20153;-67
2022/06/06 08:50:46;;;;;;;14.70;6.40;;;;;;;;;;5013128;28;20124;-66
2022/06/06 08:53:31;;;;;;;13.57;6.75;;;;;;;;;;5013218;28;20061;-67
2022/06/06 08:56:15;;;;;;;14.05;5.15;;;;;;;;;;5013074;28;20188;-68
2022/06/06 08:58:41;;;;;;;18.63;5.72;;;;;;;;;;5012359;28;20061;-69
2022/06/06 09:01:25;;;;;;;12.38;4.32;;;;;;;;;;5011443;28;20545;-69
2022/06/06 09:04:04;;;;;;;12.13;5.22;;;;;;;;;;5012392;28;20085;-68
2022/06/06 09:06:33;;;;;;;12.38;5.10;;;;;;;;;;5012350;28;20054;-69
2022/06/06 09:09:05;;;;;;;11.80;4.80;;;;;;;;;;5010962;28;20041;-67
2022/06/06 09:11:50;;;;;;;15.15;7.00;;;;;;;;;;5012706;28;20053;-69
2022/06/06 09:14:19;;;;;;;14.98;6.05;;;;;;;;;;5012261;28;20363;-68
2022/06/06 09:16:54;;;;;;;12.45;5.35;;;;;;;;;;5011237;28;20062;-66
2022/06/06 09:19:35;;;;;;;12.57;6.05;;;;;;;;;;5012059;28;20069;-69
2022/06/06 09:22:04;;;;;;;15.50;5.60;;;;;;;;;;5011574;28;20053;-65
2022/06/06 09:24:50;;;;;;;11.63;5.75;;;;;;;;;;5011627;28;20057;-69
2022/06/06 09:27:39;;;;;;;15.10;6.38;;;;;;;;;;5012169;28;20104;-66
2022/06/06 09:30:20;;;;;;;15.23;6.53;;;;;;;;;;5012326;28;20045;-68
2022/06/06 09:32:59;;;;;;;16.95;6.75;;;;;;;;;;5011468;28;20065;-68
2022/06/06 09:35:38;;;;;;;19.23;6.70;;;;;;;;;;5010732;28;20075;-68
2022/06/06 09:38:05;;;;;;;16.77;8.02;;;;;;;;;;5011809;28;20108;-67
2022/06/06 09:40:34;;;;;;;14.10;5.75;;;;;;;;;;5012328;28;20072;-71
2022/06/06 09:43:14;;;;;;;16.30;6.00;;;;;;;;;;5012196;28;20046;-69
2022/06/06 09:45:44;;;;;;;12.40;5.40;;;;;;;;;;5012351;28;20046;-67
2022/06/06 09:48:25;;;;;;;14.73;4.90;;;;;;;;;;5009195;28;20136;-68
2022/06/06 09:50:51;;;;;;;15.90;5.88;;;;;;;;;;5011784;28;20053;-67
2022/06/06 09:53:36;;;;;;;15.43;5.47;;;;;;;;;;5011565;28;20050;-68
2022/06/06 09:59:31;;;;;;;11.13;3.88;;;;;;;;;;5011368;28;20046;-67
2022/06/06 10:02:16;;;;;;;11.68;3.40;;;;;;;;;;5011302;28;20050;-69
2022/06/06 10:04:51;;;;;;;14.70;3.88;;;;;;;;;;5010999;28;20049;-69
2022/06/06 10:07:24;;;;;;;11.27;3.65;;;;;;;;;;5010609;28;20065;-67
2022/06/06 10:10:09;;;;;;;16.65;3.97;;;;;;;;;;5010056;28;20057;-66
2022/06/06 10:12:35;;;;;;;22.58;4.20;;;;;;;;;;5011142;28;20136;-69
2022/06/06 10:15:10;;;;;;;13.27;3.20;;;;;;;;;;5011158;28;20151;-73
2022/06/06 10:17:48;;;;;;;18.02;3.78;;;;;;;;;;5011877;28;20058;-75
2022/06/06 10:20:14;;;;;;;24.58;14.77;;;;;;;;;;5010914;28;20041;-75
2022/06/06 10:22:43;;;;;;;15.50;4.07;;;;;;;;;;5011312;28;20046;-74
2022/06/06 10:25:25;;;;;;;10.50;2.88;;;;;;;;;;5011432;28;20089;-70
2022/06/06 10:28:10;;;;;;;13.18;3.22;;;;;;;;;;5010724;28;20046;-68
2022/06/06 10:30:59;;;;;;;13.50;3.50;;;;;;;;;;5010128;28;20177;-80
2022/06/06 10:33:32;;;;;;;13.02;2.90;;;;;;;;;;5004251;28;20046;-74
2022/06/06 10:36:17;;;;;;;12.50;2.80;;;;;;;;;;5010748;28;20042;-72
2022/06/06 10:39:06;;;;;;;9.90;2.60;;;;;;;;;;5009620;28;20061;-72
2022/06/06 10:41:47;;;;;;;9.02;2.75;;;;;;;;;;5004353;28;20058;-72
2022/06/06 10:44:34;;;;;;;10.82;2.92;;;;;;;;;;5010824;28;20064;-73
2022/06/06 10:47:17;;;;;;;7.70;2.47;;;;;;;;;;5010531;28;20053;-70
2022/06/06 10:49:58;;;;;;;9.35;2.45;;;;;;;;;;5010829;28;20093;-73
2022/06/06 10:52:42;;;;;;;11.05;2.53;;;;;;;;;;5010069;28;20100;-75
2022/06/06 10:55:21;;;;;;;10.73;2.58;;;;;;;;;;5010286;28;20099;-71
2022/06/06 10:57:53;;;;;;;13.88;4.88;;;;;;;;;;5009173;28;20084;-72
2022/06/06 11:00:19;;;;;;;12.93;3.03;;;;;;;;;;5011756;28;20045;-73
2022/06/06 11:03:04;;;;;;;11.35;2.72;;;;;;;;;;5014409;28;20050;-70
2022/06/06 11:05:33;;;;;;;10.70;2.70;;;;;;;;;;5014367;28;20054;-74
2022/06/06 11:08:18;;;;;;;14.43;3.45;;;;;;;;;;5014233;28;20390;-70
2022/06/06 11:10:52;;;;;;;9.55;2.33;;;;;;;;;;5013662;28;20552;-71
2022/06/06 11:13:18;;;;;;;12.07;2.95;;;;;;;;;;5012982;28;20631;-74
2022/06/06 11:15:56;;;;;;;14.93;2.60;;;;;;;;;;5014609;28;20155;-72
2022/06/06 11:18:28;;;;;;;10.68;2.30;;;;;;;;;;5013489;28;20042;-71
2022/06/06 11:21:06;;;;;;;10.45;2.90;;;;;;;;;;5014318;28;20046;-72
2022/06/06 11:23:50;;;;;;;9.27;2.60;;;;;;;;;;5014011;28;20048;-68
2022/06/06 11:26:20;;;;;;;9.48;2.40;;;;;;;;;;5013672;28;20081;-64
2022/06/06 11:29:10;;;;;;;10.48;2.78;;;;;;;;;;5012746;28;20371;-63
2022/06/06 11:31:36;;;;;;;9.00;2.42;;;;;;;;;;5008213;28;20069;-68
2022/06/06 11:34:22;;;;;;;10.40;2.40;;;;;;;;;;5013614;28;20121;-65
2022/06/06 11:37:15;;;;;;;9.75;2.58;;;;;;;;;;5013419;28;20058;-67
2022/06/06 11:39:41;;;;;;;11.43;3.10;;;;;;;;;;5013727;28;20065;-73
2022/06/06 11:42:10;;;;;;;10.30;3.33;;;;;;;;;;5013919;28;20049;-65
2022/06/06 11:44:55;;;;;;;13.65;4.15;;;;;;;;;;5013355;28;20069;-66
2022/06/06 11:47:28;;;;;;;11.57;3.13;;;;;;;;;;5012920;28;20058;-61
2022/06/06 11:50:13;;;;;;;11.07;3.58;;;;;;;;;;5012627;28;20121;-68
2022/06/06 11:52:39;;;;;;;8.98;2.97;;;;;;;;;;5013136;28;20069;-69
2022/06/06 11:55:27;;;;;;;10.98;3.42;;;;;;;;;;5013103;28;20056;-67
2022/06/06 11:58:22;;;;;;;15.13;3.80;;;;;;;;;;5012677;28;20467;-66
2022/06/06 12:00:48;;;;;;;12.55;3.78;;;;;;;;;;5013753;28;20493;-68
2022/06/06 12:03:14;;;;;;;8.90;3.33;;;;;;;;;;5013739;28;20042;-65
2022/06/06 12:05:40;;;;;;;10.55;3.10;;;;;;;;;;5013588;28;20050;-68
2022/06/06 12:08:12;;;;;;;11.55;3.20;;;;;;;;;;5013509;28;20046;-67
2022/06/06 12:10:56;;;;;;;12.38;3.60;;;;;;;;;;5012457;28;20045;-72
2022/06/06 12:13:22;;;;;;;12.32;3.28;;;;;;;;;;5013526;28;20046;-68
2022/06/06 12:15:58;;;;;;;11.38;3.38;;;;;;;;;;5013802;28;20049;-67
2022/06/06 12:18:38;;;;;;;11.50;3.53;;;;;;;;;;5013607;28;20124;-67
2022/06/06 12:21:23;;;;;;;12.48;3.90;;;;;;;;;;5013264;28;20052;-70
2022/06/06 12:24:09;;;;;;;9.70;3.30;;;;;;;;;;5013311;28;20050;-69
2022/06/06 12:26:35;;;;;;;11.63;3.53;;;;;;;;;;5013370;28;20052;-73
2022/06/06 12:29:01;;;;;;;;;;;;;;;;;;5013708;28;20100;-72
2022/06/06 12:31:47;;;;;;;10.10;3.45;;;;;;;;;;5013536;28;19929;-68
2022/06/06 12:34:19;;;;;;;13.95;3.97;;;;;;;;;;5013651;28;20402;-71
2022/06/06 12:36:58;;;;;;;13.73;3.60;;;;;;;;;;5012869;28;20074;-71
2022/06/06 12:39:24;;;;;;;11.82;3.42;;;;;;;;;;5013440;28;20129;-67
2022/06/06 12:42:05;;;;;;;11.15;3.17;;;;;;;;;;5014002;28;20088;-65
2022/06/06 12:44:31;;;;;;;10.68;3.67;;;;;;;;;;5012810;28;20141;-67
2022/06/06 12:47:13;;;;;;;9.27;3.55;;;;;;;;;;5012876;28;20093;-66
2022/06/06 12:49:39;;;;;;;15.50;4.40;;;;;;;;;;5011597;28;20406;-66
2022/06/06 12:52:05;;;;;;;;;;;;;;;;;;5013373;28;20050;-69
2022/06/06 12:54:31;;;;;;;10.98;4.07;;;;;;;;;;5012801;28;19991;-69
2022/06/06 12:56:58;;;;;;;14.05;4.60;;;;;;;;;;5013699;28;20378;-69
2022/06/06 12:59:43;;;;;;;10.80;4.00;;;;;;;;;;5013328;28;20045;-69
2022/06/06 13:02:13;;;;;;;14.23;4.13;;;;;;;;;;5012666;28;20387;-70
2022/06/06 13:04:42;;;;;;;11.70;4.28;;;;;;;;;;5012548;28;20054;-68
2022/06/06 13:07:18;;;;;;;13.02;4.60;;;;;;;;;;5012993;28;20449;-68
2022/06/06 13:10:03;;;;;;;14.02;5.20;;;;;;;;;;5012138;28;20494;-69
2022/06/06 13:12:39;;;;;;;13.93;5.00;;;;;;;;;;5012671;28;20057;-70
2022/06/06 13:15:10;;;;;;;13.85;4.55;;;;;;;;;;5012642;28;20053;-73
2022/06/06 13:17:45;;;;;;;14.25;4.72;;;;;;;;;;5012011;28;20104;-72
2022/06/06 13:20:18;;;;;;;10.93;4.30;;;;;;;;;;5012568;28;20045;-70
2022/06/06 13:22:50;;;;;;;12.38;4.78;;;;;;;;;;5012524;28;20144;-72
2022/06/06 13:25:28;;;;;;;12.30;5.03;;;;;;;;;;5012230;28;20104;-69
2022/06/06 13:27:58;;;;;;;13.85;5.15;;;;;;;;;;5011725;28;20589;-70
2022/06/06 13:30:29;;;;;;;10.55;4.07;;;;;;;;;;5012968;28;20100;-71
2022/06/06 13:33:14;;;;;;;9.85;4.15;;;;;;;;;;5012320;28;20092;-70
2022/06/06 13:35:52;;;;;;;10.10;4.68;;;;;;;;;;5012214;28;20053;-71
2022/06/06 13:38:37;;;;;;;10.43;4.78;;;;;;;;;;5012181;28;20089;-68
2022/06/06 13:41:12;;;;;;;14.65;4.70;;;;;;;;;;5012546;28;20052;-70
2022/06/06 13:43:56;;;;;;;12.55;4.93;;;;;;;;;;5012263;28;20560;-69
2022/06/06 13:46:38;;;;;;;17.88;5.72;;;;;;;;;;5012007;28;20069;-74
2022/06/06 13:49:07;;;;;;;14.38;6.07;;;;;;;;;;5011740;28;20054;-74
2022/06/06 13:52:06;;;;;;;17.88;6.80;;;;;;;;;;5012451;28;20140;-70
2022/06/06 13:54:33;;;;;;;17.88;7.15;;;;;;;;;;4999476;28;20053;-74
2022/06/06 13:57:19;;;;;;;19.92;7.25;;;;;;;;;;5011689;28;20116;-77
2022/06/06 14:00:04;;;;;;;16.08;7.72;;;;;;;;;;5011586;28;20486;-76
2022/06/06 14:02:40;;;;;;;15.32;7.78;;;;;;;;;;5011364;28;20567;-75
2022/06/06 14:05:25;;;;;;;18.52;8.60;;;;;;;;;;5011514;28;20046;-76
2022/06/06 14:08:00;;;;;;;16.70;8.55;;;;;;;;;;5011588;28;20049;-70
2022/06/06 14:10:34;;;;;;;20.95;9.77;;;;;;;;;;5010694;28;20058;-72
2022/06/06 14:13:19;;;;;;;14.45;8.52;;;;;;;;;;5011755;28;20133;-72
2022/06/06 14:15:47;;;;;;;20.55;9.55;;;;;;;;;;5011429;28;20045;-73
2022/06/06 14:18:17;;;;;;;15.90;8.77;;;;;;;;;;5011922;28;20478;-72
2022/06/06 14:20:44;;;;;;;19.40;9.23;;;;;;;;;;5012187;28;20107;-73
2022/06/06 14:23:20;;;;;;;16.55;8.48;;;;;;;;;;5011520;28;20050;-71
2022/06/06 14:25:47;;;;;;;16.00;10.00;;;;;;;;;;5011483;28;20093;-70
2022/06/06 14:28:17;;;;;;;19.25;10.82;;;;;;;;;;5011780;28;20045;-71
2022/06/06 14:30:43;;;;;;;24.42;10.27;;;;;;;;;;5012337;28;20050;-69
2022/06/06 14:33:21;;;;;;;26.02;11.88;;;;;;;;;;5012095;28;20417;-69
2022/06/06 14:35:47;;;;;;;25.38;9.98;;;;;;;;;;5015476;28;20049;-68
2022/06/06 14:38:16;;;;;;;25.67;9.85;;;;;;;;;;5014902;28;20391;-67
2022/06/06 14:40:51;;;;;;;18.95;9.02;;;;;;;;;;5016487;28;20085;-71
2022/06/06 14:43:17;;;;;;;15.30;7.60;;;;;;;;;;5016121;28;20045;-70
2022/06/06 14:45:43;;;;;;;;;;;;;;;;;;5016361;28;20466;-70
2022/06/06 14:48:14;;;;;;;22.90;11.23;;;;;;;;;;5014620;28;19952;-72
2022/06/06 14:50:53;;;;;;;20.30;11.57;;;;;;;;;;5014800;28;20415;-69
2022/06/06 14:53:25;;;;;;;24.02;13.55;;;;;;;;;;5015465;28;20057;-70
2022/06/06 14:55:53;;;;;;;27.50;16.10;;;;;;;;;;5015043;28;20050;-70
2022/06/06 14:58:25;;;;;;;57.88;17.90;;;;;;;;;;5015192;28;20129;-70
2022/06/06 15:00:53;;;;;;;57.25;20.90;;;;;;;;;;5015474;28;20049;-70
2022/06/06 15:03:20;;;;;;;62.55;22.58;;;;;;;;;;5015462;28;20042;-69
2022/06/06 15:05:46;;;;;;;18.92;9.82;;;;;;;;;;5015782;28;20093;-68
2022/06/06 15:08:22;;;;;;;29.10;11.45;;;;;;;;;;5016030;28;20050;-73
2022/06/06 15:10:55;;;;;;;12.82;5.70;;;;;;;;;;5015993;28;20042;-71
2022/06/06 15:13:22;;;;;;;13.73;4.80;;;;;;;;;;5016332;28;20089;-72
2022/06/06 15:15:49;;;;;;;10.77;3.80;;;;;;;;;;5017024;28;20120;-71
2022/06/06 15:18:22;;;;;;;9.23;3.70;;;;;;;;;;5016379;28;20089;-70
2022/06/06 15:20:52;;;;;;;11.05;3.70;;;;;;;;;;5015688;28;20072;-68
2022/06/06 15:23:29;;;;;;;10.93;4.03;;;;;;;;;;5014884;28;20485;-70